Mijn Webcam Meer informatie Mijn Webcam


webcam facing north-east Meer informatie webcam facing north-east


Regen radar Meer informatie rain snow radar


Bezoek onze andere website:

Template documentation
and downloads

And another site


CBI



METAR rapporten vliegvelden

   
EHGG - Groningen/Eelde
Gewijzigd: 20-08-2017 20:25
Helder  
Helder  
   Wind: Westen 3,6 m/s
Wind: Westen 3,6 m/s
Temperatuur: 15°C
Dauwpunt: 12°C
Vochtigheid: 82%
Barometer: 1021 hPa
Bewolking: Helder
Zicht: More then 10 km
Bewolking: Helder
EHGG 201825Z AUTO 27007KT 240V310 9999 NCD 15/12 Q1021 NOSIG
EHMA - Schiermonnikoog
Gewijzigd: 20-08-2017 20:55
Gedeeltelijk bewolkt  
Gedeeltelijk bewolkt  
   Wind: WNW 9,8 m/s
Wind: WNW 9,8 m/s
Temperatuur: 17°C
Dauwpunt: 11°C
Vochtigheid: 68%
Barometer: 1021 hPa
Bewolking: Gedeeltelijk bewolkt
Zicht: More then 10 km
Bewolking: Gedeeltelijk bewolkt 640,1 m,
Gedeeltelijk bewolkt 792,5 m
EHMA 201855Z AUTO 30019KT 9999 SCT021 SCT026 17/11 Q1021
EHMG - Terschelling
Gewijzigd: 20-08-2017 20:55
Gedeeltelijk bewolkt  
Gedeeltelijk bewolkt  
   Wind: WNW 9,3 m/s
Wind: WNW 9,3 m/s
Temperatuur: 16°C
Dauwpunt: 12°C
Vochtigheid: 77%
Barometer: 1021 hPa
Bewolking: Gedeeltelijk bewolkt
Zicht: More then 10 km
Bewolking: Licht bewolkt 548,6 m,
Gedeeltelijk bewolkt 701 m
EHMG 201855Z AUTO 30018KT 260V050 9999 FEW018 SCT023 16/12 Q1021
EHVL - Vlieland
Gewijzigd: 20-08-2017 20:55
Grotendeels bewolkt  
Grotendeels bewolkt  
   Wind: WNW 8,2 m/s
Wind: WNW 8,2 m/s
Temperatuur: 16°C
Dauwpunt: 12°C
Vochtigheid: 77%
Barometer: 1022 hPa
Bewolking: Grotendeels bewolkt
Zicht: More then 10 km
Bewolking: Grotendeels bewolkt 670,6 m,
Grotendeels bewolkt 823 m
EHVL 201855Z AUTO 29016KT 9999 BKN022 BKN027 16/12 Q1022 WHT
ETWM - Meppen, Germany
Gewijzigd: 20-08-2017 20:20
  
  
   Wind: Westen 2,1 m/s
Wind: Westen 2,1 m/s
Temperatuur: 16°C
Dauwpunt: 11°C
Vochtigheid: 72%
Barometer: 1022 hPa
Zicht: More then 10 km
ETWM 201820Z AUTO 27004KT 9999 // ////// 16/11 Q1022 ///
 

Script ontwikkeld door  Saratoga-weather.org Aangepast voor de template door  Weerstation Leuven

U vindt ons ook hier:

Het Weer Aktueel

UK Metoffice

European Weather Network

WeatherCloud

Weather Underground

Benelux Weer Netwerk

AWEKAS

WeatherlinkIP

HAMweather, WeatherForYou, PWS Weather

Apparatuur in gebruik:

Weerstation
Davis VP2 Plus

Weerprogramma
Cumulus

Weercomputer
ASUS Eee Box B202

Webleverancier
Antagonist

Davis VP2 Plus

Cumulus

ASUS Eee Box B202

Antagonist